Columbia Regional Airport Columbia US
ICAO: KCOU
IATA: COU
Category: Medium
Scheduled Services: Yes

Elevation: 889 ft
TransAlt. 18000 ft.

Airport Communications:
MIZZU APP/DEP:124.375
ATIS:128.45
CTAF:119.3
GND:121.6
RDO:122.2
TWR:119.3
UNICOM:122.95

KCOU Zoom In..

Runways:

(A) RW 02 length 6501 ft width 150 ft
ILS 110.70 / hdg 18

(B) RW 13 length 4401 ft width 75 ft
---- / hdg 132

(C) RW 20 length 6501 ft width 150 ft
---- / hdg 198

(D) RW 31 length 4401 ft width 75 ft
---- / hdg 312

Location; KCOU
Day. 21 / Time. 14.03 Zulu
* Altimeter: 30.05
* Temperature: 20° c. 68°f.
* Wind from: 210° Speed 08 kn.
Dewpoint: 19° c.
Visibility: 3 Statute Miles.
Clouds: Overcast 300 ft.
Conditions: Mist.

KCOU 211403Z 21008KT 3SM BR OVC003 20/19 A3005 RMK AO2 T02000189


Wind From 210°
Speed 08 kn.

 
 
jpsmedia.com for Web Design SOUNDCLOUD worldairports.se 2018   terms of use